Weather at Ngurah Rai (Bali) International Airport

Public forecast

Using degrees Celsius for public forecast. Weather courtesy of forecast.io.

Current aviation weather report (METAR) for Ngurah Rai (Bali) International Airport

Retrieved 2021/12/03 19:00 UTC (23 minutes ago):

WADD 031900Z 27007KT 9999 SCT017 27/25 Q1008 NOSIG

Aviation forecast (TAF) for Ngurah Rai (Bali) International Airport

Retrieved 2021/12/03 18:09 UTC (1 hour ago):

TAF TAF WADD 031700Z 0318/0418 VRB05KT 9999 SCT016 BECMG 0400/0402 25010KT